Carter, Kentucky
Current Conditions -  °F | °C
As of 10:35 AM on Friday 24 Oct 2014 (Local Time) from KDWU Reporting Station
Overcast Overcast  
Wind Chill: 45°   Ceiling: 300
Heat Index: 45°   Visibility: 5mi
Dew Point: 41°   Wind: 0mph
Humidity: 87%   Direction: NA
Pressure: 30.12"   Gusts: NA
Location:  38.43°N, 83.12°W
Report Text: KDWU 241435Z AUTO 00000KT 5SM OVC003 07/05 A3012 RMK AO1
Loading
Personal Weather Stations






























Interactive Weather Map
Tropical Storm Tracking
New forecast layout! Learn more

10-Day Weather Forecast

Advertisements
Track Severe Weather on mobile